sensor_id;sensor_type;location;lat;lon;timestamp;temperature;humidity
11963;DHT22;62678;52.130;5.584;2023-05-02T00:01:51;11.40;99.90
11963;DHT22;62678;52.130;5.584;2023-05-02T00:04:18;11.30;99.90
11963;DHT22;62678;52.130;5.584;2023-05-02T00:06:45;11.40;99.90
11963;DHT22;62678;52.130;5.584;2023-05-02T00:09:12;11.40;99.90
11963;DHT22;62678;52.130;5.584;2023-05-02T00:11:40;11.40;99.90
11963;DHT22;62678;52.130;5.584;2023-05-02T00:14:07;11.50;99.90
11963;DHT22;62678;52.130;5.584;2023-05-02T00:16:33;11.50;99.90
11963;DHT22;62678;52.130;5.584;2023-05-02T00:19:02;11.50;99.90
11963;DHT22;62678;52.130;5.584;2023-05-02T00:21:29;11.40;99.90
11963;DHT22;62678;52.130;5.584;2023-05-02T00:23:55;11.50;99.90
11963;DHT22;62678;52.130;5.584;2023-05-02T00:26:22;11.50;99.90
11963;DHT22;62678;52.130;5.584;2023-05-02T00:28:49;11.50;99.90
11963;DHT22;62678;52.130;5.584;2023-05-02T00:31:16;11.50;99.90
11963;DHT22;62678;52.130;5.584;2023-05-02T00:33:43;11.40;99.90
11963;DHT22;62678;52.130;5.584;2023-05-02T00:36:15;11.40;99.90
11963;DHT22;62678;52.130;5.584;2023-05-02T00:38:42;11.50;99.90
11963;DHT22;62678;52.130;5.584;2023-05-02T00:41:09;11.50;99.90
11963;DHT22;62678;52.130;5.584;2023-05-02T00:43:36;11.60;99.90
11963;DHT22;62678;52.130;5.584;2023-05-02T00:46:05;11.60;99.90
11963;DHT22;62678;52.130;5.584;2023-05-02T00:48:34;11.60;99.90
11963;DHT22;62678;52.130;5.584;2023-05-02T00:51:02;11.60;99.90
11963;DHT22;62678;52.130;5.584;2023-05-02T00:53:32;11.60;99.90
11963;DHT22;62678;52.130;5.584;2023-05-02T00:56:01;11.60;99.90
11963;DHT22;62678;52.130;5.584;2023-05-02T00:58:28;11.60;99.90
11963;DHT22;62678;52.130;5.584;2023-05-02T01:01:04;11.50;99.90
11963;DHT22;62678;52.130;5.584;2023-05-02T01:03:38;11.50;99.90
11963;DHT22;62678;52.130;5.584;2023-05-02T01:06:15;11.60;99.90
11963;DHT22;62678;52.130;5.584;2023-05-02T01:08:54;11.50;99.90
11963;DHT22;62678;52.130;5.584;2023-05-02T01:11:32;11.60;99.90
11963;DHT22;62678;52.130;5.584;2023-05-02T01:14:02;11.60;99.90
11963;DHT22;62678;52.130;5.584;2023-05-02T01:16:31;11.40;99.90
11963;DHT22;62678;52.130;5.584;2023-05-02T01:19:00;11.50;99.90
11963;DHT22;62678;52.130;5.584;2023-05-02T01:21:29;11.50;99.90
11963;DHT22;62678;52.130;5.584;2023-05-02T01:24:04;11.60;99.90
11963;DHT22;62678;52.130;5.584;2023-05-02T01:26:45;11.60;99.90
11963;DHT22;62678;52.130;5.584;2023-05-02T01:29:15;11.60;99.90
11963;DHT22;62678;52.130;5.584;2023-05-02T01:31:47;11.60;99.90
11963;DHT22;62678;52.130;5.584;2023-05-02T01:34:15;11.50;99.90
11963;DHT22;62678;52.130;5.584;2023-05-02T01:36:44;11.40;99.90
11963;DHT22;62678;52.130;5.584;2023-05-02T01:39:14;11.30;99.90
11963;DHT22;62678;52.130;5.584;2023-05-02T01:41:44;11.20;99.90
11963;DHT22;62678;52.130;5.584;2023-05-02T01:44:15;11.20;99.90
11963;DHT22;62678;52.130;5.584;2023-05-02T01:46:42;11.20;99.90
11963;DHT22;62678;52.130;5.584;2023-05-02T01:49:10;11.20;99.90
11963;DHT22;62678;52.130;5.584;2023-05-02T01:51:43;11.20;99.90
11963;DHT22;62678;52.130;5.584;2023-05-02T01:54:13;11.20;99.90
11963;DHT22;62678;52.130;5.584;2023-05-02T01:56:42;11.30;99.90
11963;DHT22;62678;52.130;5.584;2023-05-02T01:59:12;11.20;99.90
11963;DHT22;62678;52.130;5.584;2023-05-02T02:01:42;11.20;99.90
11963;DHT22;62678;52.130;5.584;2023-05-02T02:04:12;11.00;99.90
11963;DHT22;62678;52.130;5.584;2023-05-02T02:06:43;10.70;99.90
11963;DHT22;62678;52.130;5.584;2023-05-02T02:09:11;10.70;99.90
11963;DHT22;62678;52.130;5.584;2023-05-02T02:11:43;10.60;99.90
11963;DHT22;62678;52.130;5.584;2023-05-02T02:14:16;10.60;99.90
11963;DHT22;62678;52.130;5.584;2023-05-02T02:16:45;10.60;99.90
11963;DHT22;62678;52.130;5.584;2023-05-02T02:19:14;10.70;99.90
11963;DHT22;62678;52.130;5.584;2023-05-02T02:21:42;10.70;99.90
11963;DHT22;62678;52.130;5.584;2023-05-02T02:24:09;10.70;99.90
11963;DHT22;62678;52.130;5.584;2023-05-02T02:26:37;10.60;99.90
11963;DHT22;62678;52.130;5.584;2023-05-02T02:29:04;10.60;99.90
11963;DHT22;62678;52.130;5.584;2023-05-02T02:31:31;10.60;99.90
11963;DHT22;62678;52.130;5.584;2023-05-02T02:34:00;10.60;99.90
11963;DHT22;62678;52.130;5.584;2023-05-02T02:36:32;10.60;99.90
11963;DHT22;62678;52.130;5.584;2023-05-02T02:39:08;10.60;99.90
11963;DHT22;62678;52.130;5.584;2023-05-02T02:41:42;10.60;99.90
11963;DHT22;62678;52.130;5.584;2023-05-02T02:44:21;10.60;99.90
11963;DHT22;62678;52.130;5.584;2023-05-02T02:46:59;10.70;99.90
11963;DHT22;62678;52.130;5.584;2023-05-02T02:49:37;10.70;99.90
11963;DHT22;62678;52.130;5.584;2023-05-02T02:52:13;10.70;99.90
11963;DHT22;62678;52.130;5.584;2023-05-02T02:54:45;10.70;99.90
11963;DHT22;62678;52.130;5.584;2023-05-02T02:57:16;10.70;99.90
11963;DHT22;62678;52.130;5.584;2023-05-02T02:59:50;10.60;99.90
11963;DHT22;62678;52.130;5.584;2023-05-02T03:02:22;10.60;99.90
11963;DHT22;62678;52.130;5.584;2023-05-02T03:04:54;10.50;99.90
11963;DHT22;62678;52.130;5.584;2023-05-02T03:07:21;10.60;99.90
11963;DHT22;62678;52.130;5.584;2023-05-02T03:09:48;10.60;99.90
11963;DHT22;62678;52.130;5.584;2023-05-02T03:12:15;10.60;99.90
11963;DHT22;62678;52.130;5.584;2023-05-02T03:14:42;10.50;99.90
11963;DHT22;62678;52.130;5.584;2023-05-02T03:17:10;10.50;99.90
11963;DHT22;62678;52.130;5.584;2023-05-02T03:19:36;10.60;99.90
11963;DHT22;62678;52.130;5.584;2023-05-02T03:22:05;10.50;99.90
11963;DHT22;62678;52.130;5.584;2023-05-02T03:24:32;10.50;99.90
11963;DHT22;62678;52.130;5.584;2023-05-02T03:26:59;10.40;99.90
11963;DHT22;62678;52.130;5.584;2023-05-02T03:29:26;10.40;99.90
11963;DHT22;62678;52.130;5.584;2023-05-02T03:31:53;10.30;99.90
11963;DHT22;62678;52.130;5.584;2023-05-02T03:34:20;10.30;99.90
11963;DHT22;62678;52.130;5.584;2023-05-02T03:36:47;10.40;99.90
11963;DHT22;62678;52.130;5.584;2023-05-02T03:39:15;10.40;99.90
11963;DHT22;62678;52.130;5.584;2023-05-02T03:41:42;10.40;99.90
11963;DHT22;62678;52.130;5.584;2023-05-02T03:44:09;10.40;99.90
11963;DHT22;62678;52.130;5.584;2023-05-02T03:46:36;10.40;99.90
11963;DHT22;62678;52.130;5.584;2023-05-02T03:49:03;10.40;99.90
11963;DHT22;62678;52.130;5.584;2023-05-02T03:51:29;10.40;99.90
11963;DHT22;62678;52.130;5.584;2023-05-02T03:53:59;10.40;99.90
11963;DHT22;62678;52.130;5.584;2023-05-02T03:56:28;10.40;99.90
11963;DHT22;62678;52.130;5.584;2023-05-02T03:58:55;10.40;99.90
11963;DHT22;62678;52.130;5.584;2023-05-02T04:01:22;10.20;99.90
11963;DHT22;62678;52.130;5.584;2023-05-02T04:03:50;10.20;99.90
11963;DHT22;62678;52.130;5.584;2023-05-02T04:06:17;10.10;99.90
11963;DHT22;62678;52.130;5.584;2023-05-02T04:08:44;10.20;99.90
11963;DHT22;62678;52.130;5.584;2023-05-02T04:11:11;10.20;99.90
11963;DHT22;62678;52.130;5.584;2023-05-02T04:13:39;10.30;99.90
11963;DHT22;62678;52.130;5.584;2023-05-02T04:16:07;10.30;99.90
11963;DHT22;62678;52.130;5.584;2023-05-02T04:18:34;10.30;99.90
11963;DHT22;62678;52.130;5.584;2023-05-02T04:21:01;10.40;99.90
11963;DHT22;62678;52.130;5.584;2023-05-02T04:23:27;10.50;99.90
11963;DHT22;62678;52.130;5.584;2023-05-02T04:25:54;10.50;99.90
11963;DHT22;62678;52.130;5.584;2023-05-02T04:28:21;10.40;99.90
11963;DHT22;62678;52.130;5.584;2023-05-02T04:30:50;10.50;99.90
11963;DHT22;62678;52.130;5.584;2023-05-02T04:33:17;10.40;99.90
11963;DHT22;62678;52.130;5.584;2023-05-02T04:35:44;10.40;99.90
11963;DHT22;62678;52.130;5.584;2023-05-02T04:38:11;10.30;99.90
11963;DHT22;62678;52.130;5.584;2023-05-02T04:40:38;10.20;99.90
11963;DHT22;62678;52.130;5.584;2023-05-02T04:43:05;10.10;99.90
11963;DHT22;62678;52.130;5.584;2023-05-02T04:45:33;9.90;99.90
11963;DHT22;62678;52.130;5.584;2023-05-02T04:48:02;10.00;99.90
11963;DHT22;62678;52.130;5.584;2023-05-02T04:50:29;10.00;99.90
11963;DHT22;62678;52.130;5.584;2023-05-02T04:52:56;10.00;99.90
11963;DHT22;62678;52.130;5.584;2023-05-02T04:55:23;10.00;99.90
11963;DHT22;62678;52.130;5.584;2023-05-02T04:57:50;10.10;99.90
11963;DHT22;62678;52.130;5.584;2023-05-02T05:00:17;10.10;99.90
11963;DHT22;62678;52.130;5.584;2023-05-02T05:02:44;10.10;99.90
11963;DHT22;62678;52.130;5.584;2023-05-02T05:05:12;10.00;99.90
11963;DHT22;62678;52.130;5.584;2023-05-02T05:07:39;9.80;99.90
11963;DHT22;62678;52.130;5.584;2023-05-02T05:10:06;9.70;99.90
11963;DHT22;62678;52.130;5.584;2023-05-02T05:12:35;9.80;99.90
11963;DHT22;62678;52.130;5.584;2023-05-02T05:15:03;9.90;99.90
11963;DHT22;62678;52.130;5.584;2023-05-02T05:17:30;9.80;99.90
11963;DHT22;62678;52.130;5.584;2023-05-02T05:19:56;10.00;99.90
11963;DHT22;62678;52.130;5.584;2023-05-02T05:22:25;10.00;99.90
11963;DHT22;62678;52.130;5.584;2023-05-02T05:24:52;10.00;99.90
11963;DHT22;62678;52.130;5.584;2023-05-02T05:27:19;9.90;99.90
11963;DHT22;62678;52.130;5.584;2023-05-02T05:29:46;9.90;99.90
11963;DHT22;62678;52.130;5.584;2023-05-02T05:32:13;9.90;99.90
11963;DHT22;62678;52.130;5.584;2023-05-02T05:34:40;9.80;99.90
11963;DHT22;62678;52.130;5.584;2023-05-02T05:37:07;9.90;99.90
11963;DHT22;62678;52.130;5.584;2023-05-02T05:39:35;10.00;99.90
11963;DHT22;62678;52.130;5.584;2023-05-02T05:42:02;10.00;99.90
11963;DHT22;62678;52.130;5.584;2023-05-02T05:44:30;9.70;99.90
11963;DHT22;62678;52.130;5.584;2023-05-02T05:46:58;9.60;99.90
11963;DHT22;62678;52.130;5.584;2023-05-02T05:49:24;9.40;99.90
11963;DHT22;62678;52.130;5.584;2023-05-02T05:51:51;9.40;99.90
11963;DHT22;62678;52.130;5.584;2023-05-02T05:54:18;9.50;99.90
11963;DHT22;62678;52.130;5.584;2023-05-02T05:56:46;9.60;99.90
11963;DHT22;62678;52.130;5.584;2023-05-02T05:59:13;9.60;99.90
11963;DHT22;62678;52.130;5.584;2023-05-02T06:01:41;9.70;99.90
11963;DHT22;62678;52.130;5.584;2023-05-02T06:04:08;9.70;99.90
11963;DHT22;62678;52.130;5.584;2023-05-02T06:06:34;9.90;99.90
11963;DHT22;62678;52.130;5.584;2023-05-02T06:09:02;9.90;99.90
11963;DHT22;62678;52.130;5.584;2023-05-02T06:11:29;10.00;99.90
11963;DHT22;62678;52.130;5.584;2023-05-02T06:13:57;10.10;99.90
11963;DHT22;62678;52.130;5.584;2023-05-02T06:16:24;10.20;99.90
11963;DHT22;62678;52.130;5.584;2023-05-02T06:18:51;10.00;99.90
11963;DHT22;62678;52.130;5.584;2023-05-02T06:21:18;10.00;99.90
11963;DHT22;62678;52.130;5.584;2023-05-02T06:23:45;10.30;99.90
11963;DHT22;62678;52.130;5.584;2023-05-02T06:26:12;10.40;99.90
11963;DHT22;62678;52.130;5.584;2023-05-02T06:28:40;10.50;99.90
11963;DHT22;62678;52.130;5.584;2023-05-02T06:31:08;10.50;99.90
11963;DHT22;62678;52.130;5.584;2023-05-02T06:33:35;10.60;99.90
11963;DHT22;62678;52.130;5.584;2023-05-02T06:36:02;10.60;99.90
11963;DHT22;62678;52.130;5.584;2023-05-02T06:38:29;10.50;99.90
11963;DHT22;62678;52.130;5.584;2023-05-02T06:40:56;10.60;99.90
11963;DHT22;62678;52.130;5.584;2023-05-02T06:43:23;10.60;99.90
11963;DHT22;62678;52.130;5.584;2023-05-02T06:45:52;10.50;99.90
11963;DHT22;62678;52.130;5.584;2023-05-02T06:48:20;10.40;99.90
11963;DHT22;62678;52.130;5.584;2023-05-02T06:50:47;10.70;99.90
11963;DHT22;62678;52.130;5.584;2023-05-02T06:53:14;10.50;99.90
11963;DHT22;62678;52.130;5.584;2023-05-02T06:55:42;10.50;99.90
11963;DHT22;62678;52.130;5.584;2023-05-02T06:58:09;10.80;99.90
11963;DHT22;62678;52.130;5.584;2023-05-02T07:00:36;10.70;99.90
11963;DHT22;62678;52.130;5.584;2023-05-02T07:03:03;10.90;99.90
11963;DHT22;62678;52.130;5.584;2023-05-02T07:05:32;10.80;99.90
11963;DHT22;62678;52.130;5.584;2023-05-02T07:07:59;10.70;99.90
11963;DHT22;62678;52.130;5.584;2023-05-02T07:10:25;10.60;99.90
11963;DHT22;62678;52.130;5.584;2023-05-02T07:12:52;10.60;99.90
11963;DHT22;62678;52.130;5.584;2023-05-02T07:15:19;10.20;99.90
11963;DHT22;62678;52.130;5.584;2023-05-02T07:17:46;9.80;99.90
11963;DHT22;62678;52.130;5.584;2023-05-02T07:20:14;9.70;99.90
11963;DHT22;62678;52.130;5.584;2023-05-02T07:22:42;9.80;99.90
11963;DHT22;62678;52.130;5.584;2023-05-02T07:25:09;10.10;99.90
11963;DHT22;62678;52.130;5.584;2023-05-02T07:27:36;10.10;99.90
11963;DHT22;62678;52.130;5.584;2023-05-02T07:30:04;10.20;99.90
11963;DHT22;62678;52.130;5.584;2023-05-02T07:32:31;10.50;99.90
11963;DHT22;62678;52.130;5.584;2023-05-02T07:34:57;10.50;99.90
11963;DHT22;62678;52.130;5.584;2023-05-02T07:37:24;10.70;99.90
11963;DHT22;62678;52.130;5.584;2023-05-02T07:39:53;10.50;99.90
11963;DHT22;62678;52.130;5.584;2023-05-02T07:42:19;10.90;99.90
11963;DHT22;62678;52.130;5.584;2023-05-02T07:44:46;10.90;99.90
11963;DHT22;62678;52.130;5.584;2023-05-02T07:47:13;10.70;99.90
11963;DHT22;62678;52.130;5.584;2023-05-02T07:49:40;10.70;99.90
11963;DHT22;62678;52.130;5.584;2023-05-02T07:52:07;11.00;99.90
11963;DHT22;62678;52.130;5.584;2023-05-02T07:54:33;11.30;99.90
11963;DHT22;62678;52.130;5.584;2023-05-02T07:57:02;11.30;99.90
11963;DHT22;62678;52.130;5.584;2023-05-02T07:59:32;11.30;99.90
11963;DHT22;62678;52.130;5.584;2023-05-02T08:01:59;11.40;99.90
11963;DHT22;62678;52.130;5.584;2023-05-02T08:04:27;11.50;99.90
11963;DHT22;62678;52.130;5.584;2023-05-02T08:06:54;11.70;99.90
11963;DHT22;62678;52.130;5.584;2023-05-02T08:09:21;11.50;99.90
11963;DHT22;62678;52.130;5.584;2023-05-02T08:11:48;11.40;99.90
11963;DHT22;62678;52.130;5.584;2023-05-02T08:14:16;11.40;99.90
11963;DHT22;62678;52.130;5.584;2023-05-02T08:16:43;11.10;99.90
11963;DHT22;62678;52.130;5.584;2023-05-02T08:19:10;11.10;99.90
11963;DHT22;62678;52.130;5.584;2023-05-02T08:21:37;11.10;99.90
11963;DHT22;62678;52.130;5.584;2023-05-02T08:24:04;11.30;99.90
11963;DHT22;62678;52.130;5.584;2023-05-02T08:26:31;11.30;99.90
11963;DHT22;62678;52.130;5.584;2023-05-02T08:28:58;11.50;99.90
11963;DHT22;62678;52.130;5.584;2023-05-02T08:31:26;11.50;99.90
11963;DHT22;62678;52.130;5.584;2023-05-02T08:33:53;11.20;99.90
11963;DHT22;62678;52.130;5.584;2023-05-02T08:36:19;11.10;99.90
11963;DHT22;62678;52.130;5.584;2023-05-02T08:38:46;11.30;99.90
11963;DHT22;62678;52.130;5.584;2023-05-02T08:41:14;11.80;99.90
11963;DHT22;62678;52.130;5.584;2023-05-02T08:43:42;11.90;99.90
11963;DHT22;62678;52.130;5.584;2023-05-02T08:46:10;11.80;99.90
11963;DHT22;62678;52.130;5.584;2023-05-02T08:48:39;11.70;99.90
11963;DHT22;62678;52.130;5.584;2023-05-02T08:51:08;11.70;99.90
11963;DHT22;62678;52.130;5.584;2023-05-02T08:53:36;11.80;99.90
11963;DHT22;62678;52.130;5.584;2023-05-02T08:56:04;12.10;99.90
11963;DHT22;62678;52.130;5.584;2023-05-02T08:58:32;11.90;99.90
11963;DHT22;62678;52.130;5.584;2023-05-02T09:01:01;11.80;99.90
11963;DHT22;62678;52.130;5.584;2023-05-02T09:03:30;12.40;99.90
11963;DHT22;62678;52.130;5.584;2023-05-02T09:06:05;12.30;99.90
11963;DHT22;62678;52.130;5.584;2023-05-02T09:08:33;12.00;99.90
11963;DHT22;62678;52.130;5.584;2023-05-02T09:11:00;12.30;99.90
11963;DHT22;62678;52.130;5.584;2023-05-02T09:13:34;12.50;99.90
11963;DHT22;62678;52.130;5.584;2023-05-02T09:16:02;12.60;99.90
11963;DHT22;62678;52.130;5.584;2023-05-02T09:18:32;12.50;99.90
11963;DHT22;62678;52.130;5.584;2023-05-02T09:21:00;12.80;99.90
11963;DHT22;62678;52.130;5.584;2023-05-02T09:23:36;12.60;99.90
11963;DHT22;62678;52.130;5.584;2023-05-02T09:26:14;12.40;99.90
11963;DHT22;62678;52.130;5.584;2023-05-02T09:28:42;12.50;99.90
11963;DHT22;62678;52.130;5.584;2023-05-02T09:31:11;12.50;99.90
11963;DHT22;62678;52.130;5.584;2023-05-02T09:33:39;12.30;99.90
11963;DHT22;62678;52.130;5.584;2023-05-02T09:36:07;12.10;99.90
11963;DHT22;62678;52.130;5.584;2023-05-02T09:38:37;12.50;99.90
11963;DHT22;62678;52.130;5.584;2023-05-02T09:41:04;12.90;99.90
11963;DHT22;62678;52.130;5.584;2023-05-02T09:43:31;12.40;99.90
11963;DHT22;62678;52.130;5.584;2023-05-02T09:45:59;12.50;99.90
11963;DHT22;62678;52.130;5.584;2023-05-02T09:48:28;12.60;99.90
11963;DHT22;62678;52.130;5.584;2023-05-02T09:50:58;12.70;99.90
11963;DHT22;62678;52.130;5.584;2023-05-02T09:53:26;12.60;99.90
11963;DHT22;62678;52.130;5.584;2023-05-02T09:56:04;12.50;99.90
11963;DHT22;62678;52.130;5.584;2023-05-02T09:58:31;12.40;99.90
11963;DHT22;62678;52.130;5.584;2023-05-02T10:00:58;12.40;99.90
11963;DHT22;62678;52.130;5.584;2023-05-02T10:03:26;12.40;99.90
11963;DHT22;62678;52.130;5.584;2023-05-02T10:05:54;12.10;99.90
11963;DHT22;62678;52.130;5.584;2023-05-02T10:08:25;12.30;99.90
11963;DHT22;62678;52.130;5.584;2023-05-02T10:10:54;12.30;99.90
11963;DHT22;62678;52.130;5.584;2023-05-02T10:13:23;12.60;99.90
11963;DHT22;62678;52.130;5.584;2023-05-02T10:15:58;12.20;99.90
11963;DHT22;62678;52.130;5.584;2023-05-02T10:18:27;12.10;99.90
11963;DHT22;62678;52.130;5.584;2023-05-02T10:20:58;12.40;99.90
11963;DHT22;62678;52.130;5.584;2023-05-02T10:23:27;12.40;99.90
11963;DHT22;62678;52.130;5.584;2023-05-02T10:25:54;12.80;99.90
11963;DHT22;62678;52.130;5.584;2023-05-02T10:28:25;13.00;99.90
11963;DHT22;62678;52.130;5.584;2023-05-02T10:30:52;12.80;99.90
11963;DHT22;62678;52.130;5.584;2023-05-02T10:33:20;12.30;99.90
11963;DHT22;62678;52.130;5.584;2023-05-02T10:35:47;12.10;99.90
11963;DHT22;62678;52.130;5.584;2023-05-02T10:38:16;12.30;99.90
11963;DHT22;62678;52.130;5.584;2023-05-02T10:40:49;12.60;99.90
11963;DHT22;62678;52.130;5.584;2023-05-02T10:43:21;12.50;99.90
11963;DHT22;62678;52.130;5.584;2023-05-02T10:45:51;12.20;99.90
11963;DHT22;62678;52.130;5.584;2023-05-02T10:48:20;12.20;99.90
11963;DHT22;62678;52.130;5.584;2023-05-02T10:50:48;12.40;99.90
11963;DHT22;62678;52.130;5.584;2023-05-02T10:53:30;12.80;99.90
11963;DHT22;62678;52.130;5.584;2023-05-02T10:56:14;13.00;99.90
11963;DHT22;62678;52.130;5.584;2023-05-02T10:58:43;13.40;99.90
11963;DHT22;62678;52.130;5.584;2023-05-02T11:01:33;13.40;99.90
11963;DHT22;62678;52.130;5.584;2023-05-02T11:04:03;13.10;99.90
11963;DHT22;62678;52.130;5.584;2023-05-02T11:06:31;12.90;99.90
11963;DHT22;62678;52.130;5.584;2023-05-02T11:09:29;13.20;99.90
11963;DHT22;62678;52.130;5.584;2023-05-02T11:11:57;13.30;99.90
11963;DHT22;62678;52.130;5.584;2023-05-02T11:14:45;13.20;99.90
11963;DHT22;62678;52.130;5.584;2023-05-02T11:17:17;13.00;99.90
11963;DHT22;62678;52.130;5.584;2023-05-02T11:22:59;12.50;99.90
11963;DHT22;62678;52.130;5.584;2023-05-02T11:25:47;12.80;99.90
11963;DHT22;62678;52.130;5.584;2023-05-02T11:28:43;13.10;99.90
11963;DHT22;62678;52.130;5.584;2023-05-02T11:34:41;12.90;99.90
11963;DHT22;62678;52.130;5.584;2023-05-02T11:37:11;13.00;99.90
11963;DHT22;62678;52.130;5.584;2023-05-02T11:39:38;13.20;99.90
11963;DHT22;62678;52.130;5.584;2023-05-02T11:42:05;13.20;99.90
11963;DHT22;62678;52.130;5.584;2023-05-02T11:44:31;13.40;99.90
11963;DHT22;62678;52.130;5.584;2023-05-02T11:47:00;13.50;99.90
11963;DHT22;62678;52.130;5.584;2023-05-02T11:49:30;13.30;99.90
11963;DHT22;62678;52.130;5.584;2023-05-02T11:51:58;13.20;99.90
11963;DHT22;62678;52.130;5.584;2023-05-02T11:54:24;12.90;99.90
11963;DHT22;62678;52.130;5.584;2023-05-02T11:56:51;13.00;99.90
11963;DHT22;62678;52.130;5.584;2023-05-02T11:59:18;13.40;99.90
11963;DHT22;62678;52.130;5.584;2023-05-02T12:01:47;13.30;99.90
11963;DHT22;62678;52.130;5.584;2023-05-02T12:04:14;12.70;99.90
11963;DHT22;62678;52.130;5.584;2023-05-02T12:06:57;12.80;99.90
11963;DHT22;62678;52.130;5.584;2023-05-02T12:09:23;13.20;99.90
11963;DHT22;62678;52.130;5.584;2023-05-02T12:11:51;13.40;99.90
11963;DHT22;62678;52.130;5.584;2023-05-02T12:14:26;13.20;99.90
11963;DHT22;62678;52.130;5.584;2023-05-02T12:16:53;13.10;99.90
11963;DHT22;62678;52.130;5.584;2023-05-02T12:19:20;13.00;99.90
11963;DHT22;62678;52.130;5.584;2023-05-02T12:21:47;12.80;99.90
11963;DHT22;62678;52.130;5.584;2023-05-02T12:24:16;12.80;99.90
11963;DHT22;62678;52.130;5.584;2023-05-02T12:26:43;12.90;99.90
11963;DHT22;62678;52.130;5.584;2023-05-02T12:29:10;13.00;99.90
11963;DHT22;62678;52.130;5.584;2023-05-02T12:31:37;12.80;99.90
11963;DHT22;62678;52.130;5.584;2023-05-02T12:34:04;12.80;99.90
11963;DHT22;62678;52.130;5.584;2023-05-02T12:36:31;12.60;99.90
11963;DHT22;62678;52.130;5.584;2023-05-02T12:38:59;12.60;99.90
11963;DHT22;62678;52.130;5.584;2023-05-02T12:41:32;12.70;99.90
11963;DHT22;62678;52.130;5.584;2023-05-02T12:43:59;12.30;99.90
11963;DHT22;62678;52.130;5.584;2023-05-02T12:46:26;12.40;99.90
11963;DHT22;62678;52.130;5.584;2023-05-02T12:49:01;12.70;99.90
11963;DHT22;62678;52.130;5.584;2023-05-02T12:51:28;13.20;99.90
11963;DHT22;62678;52.130;5.584;2023-05-02T12:53:56;13.00;99.90
11963;DHT22;62678;52.130;5.584;2023-05-02T12:56:23;12.90;99.90
11963;DHT22;62678;52.130;5.584;2023-05-02T12:58:53;13.00;99.90
11963;DHT22;62678;52.130;5.584;2023-05-02T13:01:20;13.40;99.90
11963;DHT22;62678;52.130;5.584;2023-05-02T13:03:50;13.80;99.90
11963;DHT22;62678;52.130;5.584;2023-05-02T13:06:16;13.80;99.90
11963;DHT22;62678;52.130;5.584;2023-05-02T13:08:43;13.90;99.90
11963;DHT22;62678;52.130;5.584;2023-05-02T13:11:10;13.90;99.90
11963;DHT22;62678;52.130;5.584;2023-05-02T13:13:37;13.70;99.90
11963;DHT22;62678;52.130;5.584;2023-05-02T13:16:06;13.70;99.90
11963;DHT22;62678;52.130;5.584;2023-05-02T13:18:33;13.20;99.90
11963;DHT22;62678;52.130;5.584;2023-05-02T13:21:00;12.80;99.90
11963;DHT22;62678;52.130;5.584;2023-05-02T13:23:27;13.00;99.90
11963;DHT22;62678;52.130;5.584;2023-05-02T13:25:54;13.20;99.90
11963;DHT22;62678;52.130;5.584;2023-05-02T13:28:20;13.20;99.90
11963;DHT22;62678;52.130;5.584;2023-05-02T13:30:47;13.40;99.90
11963;DHT22;62678;52.130;5.584;2023-05-02T13:33:15;13.80;99.90
11963;DHT22;62678;52.130;5.584;2023-05-02T13:35:42;13.60;99.90
11963;DHT22;62678;52.130;5.584;2023-05-02T13:38:09;13.50;99.90
11963;DHT22;62678;52.130;5.584;2023-05-02T13:40:36;13.80;99.90
11963;DHT22;62678;52.130;5.584;2023-05-02T13:43:03;13.70;99.90
11963;DHT22;62678;52.130;5.584;2023-05-02T13:45:29;13.90;99.90
11963;DHT22;62678;52.130;5.584;2023-05-02T13:47:56;13.50;99.90
11963;DHT22;62678;52.130;5.584;2023-05-02T13:50:24;13.60;99.90
11963;DHT22;62678;52.130;5.584;2023-05-02T13:52:51;13.50;99.90
11963;DHT22;62678;52.130;5.584;2023-05-02T13:55:18;13.50;99.90
11963;DHT22;62678;52.130;5.584;2023-05-02T13:57:45;13.40;99.90
11963;DHT22;62678;52.130;5.584;2023-05-02T14:00:13;13.60;99.90
11963;DHT22;62678;52.130;5.584;2023-05-02T14:02:40;13.70;99.90
11963;DHT22;62678;52.130;5.584;2023-05-02T14:05:08;13.90;99.90
11963;DHT22;62678;52.130;5.584;2023-05-02T14:07:36;14.10;99.90
11963;DHT22;62678;52.130;5.584;2023-05-02T14:10:03;14.20;99.90
11963;DHT22;62678;52.130;5.584;2023-05-02T14:12:30;14.00;99.90
11963;DHT22;62678;52.130;5.584;2023-05-02T14:14:57;13.50;99.90
11963;DHT22;62678;52.130;5.584;2023-05-02T14:17:24;13.30;99.90
11963;DHT22;62678;52.130;5.584;2023-05-02T14:19:51;13.50;99.90
11963;DHT22;62678;52.130;5.584;2023-05-02T14:22:18;13.40;99.90
11963;DHT22;62678;52.130;5.584;2023-05-02T14:24:47;13.40;99.90
11963;DHT22;62678;52.130;5.584;2023-05-02T14:27:14;13.50;99.90
11963;DHT22;62678;52.130;5.584;2023-05-02T14:29:43;13.40;99.90
11963;DHT22;62678;52.130;5.584;2023-05-02T14:32:10;13.60;99.90
11963;DHT22;62678;52.130;5.584;2023-05-02T14:34:37;13.30;99.90
11963;DHT22;62678;52.130;5.584;2023-05-02T14:37:04;13.40;99.90
11963;DHT22;62678;52.130;5.584;2023-05-02T14:39:31;13.20;99.90
11963;DHT22;62678;52.130;5.584;2023-05-02T14:42:01;13.40;99.90
11963;DHT22;62678;52.130;5.584;2023-05-02T14:44:28;13.20;99.90
11963;DHT22;62678;52.130;5.584;2023-05-02T14:46:55;13.50;99.90
11963;DHT22;62678;52.130;5.584;2023-05-02T14:49:22;14.20;99.90
11963;DHT22;62678;52.130;5.584;2023-05-02T14:51:50;14.50;99.90
11963;DHT22;62678;52.130;5.584;2023-05-02T14:54:17;14.90;99.90
11963;DHT22;62678;52.130;5.584;2023-05-02T14:56:44;15.30;99.90
11963;DHT22;62678;52.130;5.584;2023-05-02T14:59:12;15.30;99.90
11963;DHT22;62678;52.130;5.584;2023-05-02T15:01:39;15.60;99.90
11963;DHT22;62678;52.130;5.584;2023-05-02T15:04:06;15.90;99.90
11963;DHT22;62678;52.130;5.584;2023-05-02T15:06:33;15.40;99.90
11963;DHT22;62678;52.130;5.584;2023-05-02T15:09:00;15.80;99.90
11963;DHT22;62678;52.130;5.584;2023-05-02T15:11:27;15.90;99.90
11963;DHT22;62678;52.130;5.584;2023-05-02T15:13:54;15.70;99.90
11963;DHT22;62678;52.130;5.584;2023-05-02T15:16:22;16.00;99.90
11963;DHT22;62678;52.130;5.584;2023-05-02T15:18:49;16.50;99.90
11963;DHT22;62678;52.130;5.584;2023-05-02T15:21:16;16.90;99.90
11963;DHT22;62678;52.130;5.584;2023-05-02T15:23:42;17.00;99.90
11963;DHT22;62678;52.130;5.584;2023-05-02T15:26:09;16.90;99.90
11963;DHT22;62678;52.130;5.584;2023-05-02T15:28:36;17.10;99.90
11963;DHT22;62678;52.130;5.584;2023-05-02T15:31:04;17.30;99.90
11963;DHT22;62678;52.130;5.584;2023-05-02T15:33:32;17.60;99.90
11963;DHT22;62678;52.130;5.584;2023-05-02T15:35:59;17.00;99.90
11963;DHT22;62678;52.130;5.584;2023-05-02T15:38:26;17.40;99.90
11963;DHT22;62678;52.130;5.584;2023-05-02T15:40:54;17.60;99.90
11963;DHT22;62678;52.130;5.584;2023-05-02T15:43:21;17.90;99.90
11963;DHT22;62678;52.130;5.584;2023-05-02T15:45:51;17.90;99.90
11963;DHT22;62678;52.130;5.584;2023-05-02T15:48:19;17.90;99.90